Wawa, Canada
Current Conditions -  °F | °C
As of 5:00 PM on Thursday 23 Oct 2014 (Local Time) from CYXZ Reporting Station
Broken Clouds Broken Clouds  
Wind Chill: 48°   Ceiling: 30000
Heat Index: 48°   Visibility: 15mi
Dew Point: 41°   Wind: 3mph
Humidity: 76%   Direction: 280°W
Pressure: 30.04"   Gusts: NA
Location:  48°N, 84.82°W
Report Text: CYXZ 232100Z 28003KT 220V310 15SM SCT200 BKN300 09/05 A3004 RMK CS4CI2 SLP186
Loading
Personal Weather Stations






























Interactive Weather Map
Tropical Storm Tracking
New forecast layout! Learn more

10-Day Weather Forecast

Advertisements
Track Severe Weather on mobile